Time;durP1;ratioP1;P1;durP2;ratioP2;P2;SDS_P1;SDS_P2;PMS_P1;PMS_P2;Temp;Humidity;BMP_temperature;BMP_pressure;BME280_temperature;BME280_humidity;BME280_pressure;Samples;Min_cycle;Max_cycle;Signal;HPM_P1;HPM_P2
2021/12/01 00:01:40;;;;;;;0.85;0.60;;;5.70;99.90;;;;;;5054757;28;20017;-74
2021/12/01 00:04:07;;;;;;;0.68;0.68;;;5.60;99.90;;;;;;5053657;28;20388;-73
2021/12/01 00:06:33;;;;;;;0.77;0.70;;;5.70;99.90;;;;;;5054136;28;20024;-73
2021/12/01 00:08:59;;;;;;;0.93;0.93;;;5.60;99.90;;;;;;5035270;28;20025;-73
2021/12/01 00:11:24;;;;;;;0.90;0.70;;;5.70;99.90;;;;;;5053397;28;20396;-73
2021/12/01 00:13:50;;;;;;;0.60;0.60;;;5.70;99.90;;;;;;5053815;28;20029;-74
2021/12/01 00:16:15;;;;;;;0.50;0.50;;;5.70;99.90;;;;;;5053474;28;20025;-74
2021/12/01 00:18:41;;;;;;;1.00;0.60;;;5.60;99.90;;;;;;5053524;28;20021;-74
2021/12/01 00:21:07;;;;;;;1.55;0.65;;;5.50;99.90;;;;;;5053125;28;20029;-74
2021/12/01 00:23:33;;;;;;;0.60;0.50;;;5.50;99.90;;;;;;5054218;28;20074;-74
2021/12/01 00:25:58;;;;;;;0.70;0.70;;;5.60;99.90;;;;;;5056858;28;20040;-74
2021/12/01 00:28:24;;;;;;;0.80;0.70;;;5.60;99.90;;;;;;5039057;28;20195;-74
2021/12/01 00:30:51;;;;;;;0.82;0.63;;;5.60;99.90;;;;;;5056566;28;20035;-74
2021/12/01 00:33:17;;;;;;;0.80;0.65;;;5.50;99.90;;;;;;5038459;28;20052;-74
2021/12/01 00:35:44;;;;;;;0.60;0.60;;;5.50;99.90;;;;;;5057113;28;20021;-73
2021/12/01 00:38:11;;;;;;;0.80;0.70;;;5.40;99.90;;;;;;5038407;28;20123;-73
2021/12/01 00:40:36;;;;;;;0.95;0.50;;;5.30;99.90;;;;;;5056466;28;20025;-73
2021/12/01 00:43:02;;;;;;;0.73;0.70;;;5.30;99.90;;;;;;5055918;28;20083;-74
2021/12/01 00:45:29;;;;;;;0.57;0.57;;;5.20;99.90;;;;;;5056203;28;20111;-73
2021/12/01 00:47:55;;;;;;;1.50;1.23;;;5.20;99.90;;;;;;5060912;28;20025;-74
2021/12/01 00:50:24;;;;;;;0.88;0.80;;;5.30;99.90;;;;;;5038073;28;20029;-74
2021/12/01 00:52:56;;;;;;;0.82;0.82;;;5.30;99.90;;;;;;5055692;28;20473;-74
2021/12/01 00:55:22;;;;;;;2.05;0.90;;;5.30;99.90;;;;;;5055427;28;20056;-74
2021/12/01 00:57:50;;;;;;;0.50;0.50;;;5.30;99.90;;;;;;5055699;28;20088;-74
2021/12/01 01:00:16;;;;;;;2.20;0.55;;;5.30;99.90;;;;;;5037731;28;20017;-74
2021/12/01 01:02:42;;;;;;;2.13;0.50;;;5.30;99.90;;;;;;5055451;28;20021;-74
2021/12/01 01:05:09;;;;;;;0.65;0.60;;;5.20;99.90;;;;;;5055479;28;20031;-73
2021/12/01 01:07:35;;;;;;;0.50;0.50;;;5.20;99.90;;;;;;5055332;28;20052;-74
2021/12/01 01:10:05;;;;;;;0.60;0.60;;;5.30;99.90;;;;;;5055264;28;20396;-74
2021/12/01 01:18:06;;;;;;;0.50;0.50;;;5.50;99.90;;;;;;5055386;28;20071;-73
2021/12/01 01:20:33;;;;;;;0.98;0.60;;;5.40;99.90;;;;;;5055046;28;20421;-73
2021/12/01 01:22:59;;;;;;;3.28;0.52;;;5.40;99.90;;;;;;5054783;28;20030;-74
2021/12/01 01:25:24;;;;;;;1.33;0.50;;;5.40;99.90;;;;;;5037060;28;20036;-74
2021/12/01 01:27:50;;;;;;;0.95;0.70;;;5.50;99.90;;;;;;5066175;28;20025;-72
2021/12/01 01:30:15;;;;;;;0.70;0.65;;;5.50;99.90;;;;;;5058767;28;20129;-72
2021/12/01 01:32:41;;;;;;;0.70;0.50;;;5.50;99.90;;;;;;5059990;28;20041;-72
2021/12/01 01:35:07;;;;;;;0.70;0.70;;;5.60;99.90;;;;;;5058454;28;20041;-71
2021/12/01 01:37:33;;;;;;;0.60;0.60;;;5.60;99.90;;;;;;5061290;28;20036;-73
2021/12/01 01:39:58;;;;;;;0.60;0.60;;;5.60;99.90;;;;;;5057262;28;20037;-72
2021/12/01 01:42:24;;;;;;;0.60;0.60;;;5.70;99.90;;;;;;5058582;28;20556;-73
2021/12/01 01:44:50;;;;;;;1.10;0.75;;;5.60;99.90;;;;;;5038315;28;20032;-73
2021/12/01 01:47:16;;;;;;;1.25;0.70;;;5.70;99.90;;;;;;5055821;28;20025;-73
2021/12/01 01:49:54;;;;;;;0.88;0.80;;;5.80;99.90;;;;;;5055814;28;20036;-73
2021/12/01 01:52:19;;;;;;;1.77;0.80;;;5.70;99.90;;;;;;5054945;28;20021;-73
2021/12/01 01:54:45;;;;;;;1.10;0.60;;;5.70;99.90;;;;;;5045301;28;20029;-73
2021/12/01 01:57:10;;;;;;;0.68;0.68;;;5.70;99.90;;;;;;5063448;28;20096;-73
2021/12/01 01:59:36;;;;;;;0.80;0.70;;;5.60;99.90;;;;;;5057563;28;20288;-73
2021/12/01 02:02:03;;;;;;;2.63;0.90;;;5.60;99.90;;;;;;5073298;28;20083;-73
2021/12/01 02:04:33;;;;;;;0.80;0.80;;;5.60;99.90;;;;;;5070679;28;20473;-73
2021/12/01 02:06:59;;;;;;;1.35;0.90;;;5.60;99.90;;;;;;5055809;28;20033;-73
2021/12/01 02:09:25;;;;;;;0.60;0.60;;;5.70;99.90;;;;;;5038022;28;20017;-73
2021/12/01 02:11:56;;;;;;;1.30;1.00;;;5.60;99.90;;;;;;5054592;28;20025;-73
2021/12/01 02:14:22;;;;;;;1.58;0.85;;;5.50;99.90;;;;;;5054629;28;20036;-73
2021/12/01 02:16:48;;;;;;;1.23;1.00;;;5.50;99.90;;;;;;5036167;28;20051;-73
2021/12/01 02:19:14;;;;;;;1.00;0.80;;;5.50;99.90;;;;;;5036770;28;20021;-73
2021/12/01 02:21:41;;;;;;;0.70;0.70;;;5.70;99.90;;;;;;5036174;28;20450;-73
2021/12/01 02:24:11;;;;;;;0.70;0.60;;;5.60;99.90;;;;;;5054505;28;20143;-73
2021/12/01 02:26:40;;;;;;;0.85;0.80;;;5.70;99.90;;;;;;5056599;28;20072;-73
2021/12/01 02:29:09;;;;;;;0.85;0.85;;;5.70;99.90;;;;;;5059243;28;20024;-73
2021/12/01 02:31:36;;;;;;;2.03;0.85;;;5.80;99.90;;;;;;5056034;28;20032;-73
2021/12/01 02:34:07;;;;;;;0.85;0.70;;;5.80;99.90;;;;;;5053947;28;20078;-73
2021/12/01 02:36:33;;;;;;;1.38;0.88;;;5.70;99.90;;;;;;5036140;28;20021;-73
2021/12/01 02:39:01;;;;;;;0.95;0.82;;;5.70;99.90;;;;;;5054009;28;20025;-73
2021/12/01 02:41:29;;;;;;;0.70;0.70;;;5.70;99.90;;;;;;5054191;28;20024;-73
2021/12/01 02:43:55;;;;;;;1.27;0.90;;;5.60;99.90;;;;;;5063920;28;20021;-72
2021/12/01 02:46:21;;;;;;;0.98;0.88;;;5.60;99.90;;;;;;5042943;28;20571;-73
2021/12/01 02:48:47;;;;;;;2.67;0.93;;;5.70;99.90;;;;;;5054400;28;20396;-73
2021/12/01 02:51:13;;;;;;;1.10;0.80;;;5.90;99.90;;;;;;5053974;28;20021;-73
2021/12/01 02:53:40;;;;;;;0.68;0.68;;;5.90;99.90;;;;;;5054122;28;20021;-73
2021/12/01 02:56:07;;;;;;;0.80;0.77;;;5.90;99.90;;;;;;5053853;28;20048;-73
2021/12/01 02:58:38;;;;;;;1.13;0.80;;;5.90;99.90;;;;;;5035311;28;20049;-73
2021/12/01 03:01:06;;;;;;;;;;;5.80;99.90;;;;;;5036055;28;20105;-73
2021/12/01 03:03:32;;;;;;;0.95;0.68;;;5.90;99.90;;;;;;5042332;28;19981;-73
2021/12/01 03:05:58;;;;;;;0.80;0.75;;;5.90;99.90;;;;;;5054099;28;20100;-73
2021/12/01 03:08:24;;;;;;;0.60;0.60;;;5.90;99.90;;;;;;5035723;28;20120;-73
2021/12/01 03:10:53;;;;;;;0.60;0.60;;;5.80;99.90;;;;;;5035428;28;20029;-73
2021/12/01 03:13:20;;;;;;;0.90;0.82;;;5.80;99.90;;;;;;5053293;28;20480;-73
2021/12/01 03:15:47;;;;;;;0.60;0.60;;;5.90;99.90;;;;;;5034923;28;20047;-73
2021/12/01 03:18:14;;;;;;;0.98;0.60;;;5.90;99.90;;;;;;5034973;28;20032;-73
2021/12/01 03:20:40;;;;;;;0.85;0.85;;;5.90;99.90;;;;;;5053002;28;20060;-72
2021/12/01 03:23:06;;;;;;;1.02;0.63;;;5.90;99.90;;;;;;5052837;28;20388;-72
2021/12/01 03:25:33;;;;;;;0.95;0.70;;;5.90;99.90;;;;;;5034965;28;20029;-73
2021/12/01 03:27:58;;;;;;;0.57;0.57;;;5.80;99.90;;;;;;5035592;28;20086;-73
2021/12/01 03:30:24;;;;;;;0.65;0.60;;;5.90;99.90;;;;;;5052934;28;20100;-72
2021/12/01 03:32:50;;;;;;;0.98;0.65;;;5.90;99.90;;;;;;5073888;28;20120;-71
2021/12/01 03:35:16;;;;;;;0.80;0.73;;;5.90;99.90;;;;;;5073117;28;20021;-73
2021/12/01 03:37:44;;;;;;;3.17;0.70;;;5.90;99.90;;;;;;5054703;28;20024;-72
2021/12/01 03:40:11;;;;;;;1.00;0.88;;;5.80;99.90;;;;;;5074227;28;20028;-72
2021/12/01 03:42:38;;;;;;;1.00;0.70;;;5.80;99.90;;;;;;5073458;28;20021;-73
2021/12/01 03:45:05;;;;;;;1.10;0.80;;;5.80;99.90;;;;;;5055033;28;20103;-73
2021/12/01 03:47:31;;;;;;;1.77;1.02;;;5.80;99.90;;;;;;5059322;28;20036;-73
2021/12/01 03:49:56;;;;;;;0.63;0.63;;;5.70;99.90;;;;;;5060087;28;20109;-73
2021/12/01 03:52:24;;;;;;;0.70;0.70;;;5.80;99.90;;;;;;5055273;28;20496;-72
2021/12/01 03:54:50;;;;;;;1.13;0.70;;;5.80;99.90;;;;;;5053423;28;20384;-73
2021/12/01 03:57:16;;;;;;;1.85;0.85;;;5.90;99.90;;;;;;5038292;28;20362;-73
2021/12/01 03:59:43;;;;;;;0.90;0.90;;;6.00;99.90;;;;;;5053193;28;20040;-73
2021/12/01 04:02:09;;;;;;;1.05;0.75;;;5.90;99.90;;;;;;5053529;28;20108;-73
2021/12/01 04:04:35;;;;;;;0.70;0.70;;;5.90;99.90;;;;;;5059791;28;20048;-73
2021/12/01 04:07:01;;;;;;;0.75;0.75;;;5.90;99.90;;;;;;5055149;28;20029;-73
2021/12/01 04:09:27;;;;;;;2.00;1.15;;;5.90;99.90;;;;;;5052956;28;20109;-73
2021/12/01 04:11:53;;;;;;;1.67;0.80;;;5.90;99.90;;;;;;5035567;28;20116;-73
2021/12/01 04:14:18;;;;;;;1.00;0.60;;;5.90;99.90;;;;;;5052710;28;20076;-73
2021/12/01 04:16:44;;;;;;;2.50;0.93;;;5.90;99.90;;;;;;5053266;28;20640;-75
2021/12/01 04:19:10;;;;;;;0.80;0.60;;;5.90;99.90;;;;;;5052718;28;20056;-74
2021/12/01 04:21:36;;;;;;;0.98;0.82;;;5.90;99.90;;;;;;5052643;28;20021;-74
2021/12/01 04:24:02;;;;;;;1.45;0.93;;;5.90;99.90;;;;;;5052843;28;20021;-74
2021/12/01 04:26:31;;;;;;;0.80;0.80;;;5.90;99.90;;;;;;5075526;22;20048;-74
2021/12/01 04:28:58;;;;;;;0.95;0.90;;;5.80;99.90;;;;;;5052592;28;20025;-73
2021/12/01 04:31:24;;;;;;;1.85;0.80;;;5.90;99.90;;;;;;5052810;28;20024;-73
2021/12/01 04:33:49;;;;;;;1.50;1.05;;;5.90;99.90;;;;;;5052859;28;20033;-73
2021/12/01 04:36:18;;;;;;;1.95;0.77;;;5.80;99.90;;;;;;5052645;28;20025;-73
2021/12/01 04:38:45;;;;;;;1.42;0.95;;;5.90;99.90;;;;;;5034702;28;20024;-72
2021/12/01 04:41:13;;;;;;;1.20;1.10;;;5.90;99.90;;;;;;5052117;28;20055;-74
2021/12/01 04:43:39;;;;;;;1.00;0.90;;;5.90;99.90;;;;;;5052110;28;20017;-73
2021/12/01 04:46:06;;;;;;;1.25;0.95;;;5.90;99.90;;;;;;5052305;28;20043;-72
2021/12/01 04:48:32;;;;;;;1.20;1.00;;;5.90;99.90;;;;;;5055435;28;20036;-74
2021/12/01 04:50:58;;;;;;;1.77;0.70;;;5.90;99.90;;;;;;5054938;28;20025;-74
2021/12/01 04:53:26;;;;;;;0.85;0.85;;;6.00;99.90;;;;;;5054430;28;20032;-74
2021/12/01 04:55:53;;;;;;;1.92;1.10;;;6.00;99.90;;;;;;5035555;28;20028;-74
2021/12/01 04:58:19;;;;;;;2.50;1.10;;;6.00;99.90;;;;;;5053551;28;20033;-74
2021/12/01 05:00:45;;;;;;;1.00;0.90;;;6.00;99.90;;;;;;5056762;28;20025;-73
2021/12/01 05:03:10;;;;;;;1.27;1.10;;;6.00;99.90;;;;;;5060777;28;20041;-72
2021/12/01 05:05:36;;;;;;;1.80;1.10;;;6.10;99.90;;;;;;5056425;28;20025;-73
2021/12/01 05:08:02;;;;;;;1.85;0.90;;;6.10;99.90;;;;;;5052945;28;20017;-73
2021/12/01 05:10:28;;;;;;;2.63;1.38;;;6.10;99.90;;;;;;5055616;28;20099;-73
2021/12/01 05:12:53;;;;;;;1.50;0.90;;;6.10;99.90;;;;;;5039995;28;20503;-73
2021/12/01 05:15:19;;;;;;;0.80;0.80;;;6.10;99.90;;;;;;5040988;28;20021;-73
2021/12/01 05:17:45;;;;;;;0.90;0.77;;;6.20;99.90;;;;;;5065789;28;20017;-73
2021/12/01 05:20:14;;;;;;;2.42;0.70;;;6.20;99.90;;;;;;5073002;28;20036;-73
2021/12/01 05:22:39;;;;;;;1.10;1.00;;;6.20;99.90;;;;;;5058831;28;20068;-73
2021/12/01 05:25:05;;;;;;;1.60;0.95;;;6.20;99.90;;;;;;5058238;28;20045;-72
2021/12/01 05:27:32;;;;;;;1.10;0.73;;;6.20;99.90;;;;;;5057217;28;20029;-73
2021/12/01 05:29:58;;;;;;;1.10;1.00;;;6.20;99.90;;;;;;5056897;28;20031;-75
2021/12/01 05:32:23;;;;;;;0.60;0.60;;;6.20;99.90;;;;;;5057129;28;20028;-73
2021/12/01 05:34:49;;;;;;;0.60;0.60;;;6.20;99.90;;;;;;5056597;28;20025;-73
2021/12/01 05:37:15;;;;;;;1.88;0.77;;;6.20;99.90;;;;;;5057201;28;20433;-73
2021/12/01 05:39:44;;;;;;;1.65;0.85;;;6.30;99.90;;;;;;5056638;28;20037;-74
2021/12/01 05:42:12;;;;;;;1.70;0.80;;;6.30;99.90;;;;;;5056114;28;20039;-74
2021/12/01 05:44:39;;;;;;;0.60;0.60;;;6.40;99.90;;;;;;5061273;28;20032;-74
2021/12/01 05:47:05;;;;;;;0.75;0.65;;;6.40;99.90;;;;;;5066751;28;20080;-74
2021/12/01 05:49:30;;;;;;;1.30;0.57;;;6.60;99.90;;;;;;5059467;28;20060;-73
2021/12/01 05:51:56;;;;;;;0.50;0.50;;;6.60;99.90;;;;;;5057031;28;20036;-72
2021/12/01 05:54:22;;;;;;;0.70;0.60;;;6.70;99.90;;;;;;5056229;28;20025;-75
2021/12/01 05:56:48;;;;;;;0.88;0.50;;;6.70;99.90;;;;;;5040044;28;20481;-74
2021/12/01 05:59:13;;;;;;;0.80;0.50;;;6.80;99.90;;;;;;5056763;28;20413;-73
2021/12/01 06:01:39;;;;;;;0.70;0.70;;;6.90;99.90;;;;;;5058759;28;20468;-74
2021/12/01 06:04:04;;;;;;;0.82;0.60;;;6.90;99.90;;;;;;5058200;28;20094;-73
2021/12/01 06:06:30;;;;;;;1.33;0.50;;;6.90;99.90;;;;;;5057734;28;20025;-73
2021/12/01 06:08:57;;;;;;;1.45;0.68;;;6.90;99.90;;;;;;5059445;28;20050;-74
2021/12/01 06:11:23;;;;;;;0.82;0.60;;;6.80;99.90;;;;;;5027025;28;20037;-74
2021/12/01 06:13:52;;;;;;;0.50;0.50;;;6.80;99.90;;;;;;5066316;28;20496;-74
2021/12/01 06:16:21;;;;;;;1.95;0.60;;;6.70;99.90;;;;;;5060560;28;20093;-73
2021/12/01 06:18:47;;;;;;;1.25;0.88;;;6.70;99.90;;;;;;5072294;28;20023;-73
2021/12/01 06:21:13;;;;;;;0.70;0.50;;;6.70;99.90;;;;;;5071629;28;20013;-73
2021/12/01 06:23:39;;;;;;;0.88;0.70;;;6.70;99.90;;;;;;5073060;28;20025;-74
2021/12/01 06:26:04;;;;;;;1.30;1.20;;;6.70;99.90;;;;;;5071661;28;20033;-74
2021/12/01 06:28:30;;;;;;;2.30;1.15;;;6.80;99.90;;;;;;5052806;28;20036;-74
2021/12/01 06:30:55;;;;;;;1.35;0.90;;;6.80;99.90;;;;;;5068357;28;20025;-74
2021/12/01 06:33:21;;;;;;;0.60;0.60;;;6.80;99.90;;;;;;5057034;28;20051;-74
2021/12/01 06:35:51;;;;;;;0.50;0.50;;;6.90;99.90;;;;;;5054670;28;20025;-74
2021/12/01 06:38:18;;;;;;;0.50;0.50;;;7.00;99.90;;;;;;5054786;28;20021;-75
2021/12/01 06:40:47;;;;;;;1.52;0.40;;;6.90;99.90;;;;;;5054426;28;20074;-74
2021/12/01 06:43:13;;;;;;;0.80;0.50;;;6.90;99.90;;;;;;5054941;28;20116;-75
2021/12/01 06:45:39;;;;;;;1.45;0.70;;;6.90;99.90;;;;;;5055371;28;20500;-74
2021/12/01 06:48:06;;;;;;;0.60;0.47;;;6.90;99.90;;;;;;5054137;28;20594;-74
2021/12/01 06:50:31;;;;;;;1.02;0.70;;;6.90;99.90;;;;;;5053881;28;20029;-73
2021/12/01 06:52:57;;;;;;;1.30;0.57;;;7.00;99.90;;;;;;5054293;28;20032;-73
2021/12/01 06:55:23;;;;;;;0.60;0.52;;;7.00;99.90;;;;;;5053828;28;20096;-74
2021/12/01 06:57:49;;;;;;;1.23;0.63;;;7.00;99.90;;;;;;5035975;28;20021;-73
2021/12/01 07:00:17;;;;;;;1.00;0.90;;;7.10;99.90;;;;;;5053680;28;20025;-73
2021/12/01 07:02:42;;;;;;;2.15;1.10;;;7.20;99.90;;;;;;5054698;28;20022;-73
2021/12/01 07:05:09;;;;;;;2.30;0.77;;;7.20;99.90;;;;;;5053898;28;20071;-73
2021/12/01 07:07:35;;;;;;;1.85;0.73;;;7.20;99.90;;;;;;5053820;28;20029;-73
2021/12/01 07:10:01;;;;;;;0.70;0.70;;;7.20;99.90;;;;;;5035388;28;20028;-74
2021/12/01 07:12:27;;;;;;;1.02;0.60;;;7.20;99.90;;;;;;5053860;28;20147;-73
2021/12/01 07:14:52;;;;;;;0.88;0.70;;;7.30;99.90;;;;;;5056494;28;20025;-73
2021/12/01 07:17:19;;;;;;;0.98;0.55;;;7.40;99.90;;;;;;5037215;28;20107;-74
2021/12/01 07:19:45;;;;;;;0.88;0.50;;;7.40;99.90;;;;;;5054699;28;20113;-74
2021/12/01 07:22:11;;;;;;;1.85;0.70;;;7.40;99.90;;;;;;5055083;28;20028;-73
2021/12/01 07:24:37;;;;;;;1.20;0.43;;;7.40;99.90;;;;;;5054328;28;20025;-74
2021/12/01 07:27:02;;;;;;;1.35;0.50;;;7.40;99.90;;;;;;5058473;28;20039;-74
2021/12/01 07:29:30;;;;;;;2.30;0.60;;;7.50;99.90;;;;;;5042284;28;20025;-73
2021/12/01 07:31:55;;;;;;;1.25;0.60;;;7.60;99.90;;;;;;5053339;28;20480;-73
2021/12/01 07:34:21;;;;;;;1.95;0.57;;;7.60;99.90;;;;;;5035032;28;20029;-74
2021/12/01 07:36:47;;;;;;;0.50;0.50;;;7.60;99.90;;;;;;5053622;28;20495;-73
2021/12/01 07:39:12;;;;;;;1.73;0.70;;;7.60;99.90;;;;;;5052911;28;20031;-72
2021/12/01 07:41:38;;;;;;;1.27;0.43;;;7.60;99.90;;;;;;5052841;28;20398;-74
2021/12/01 07:44:04;;;;;;;0.90;0.73;;;7.80;99.90;;;;;;5053136;28;20091;-74
2021/12/01 07:46:30;;;;;;;1.83;0.60;;;7.80;99.90;;;;;;5053288;28;20493;-74
2021/12/01 07:48:55;;;;;;;1.17;0.40;;;7.80;99.90;;;;;;5053740;28;20032;-74
2021/12/01 07:51:21;;;;;;;1.85;0.55;;;7.80;99.90;;;;;;5038870;28;20033;-74
2021/12/01 07:53:46;;;;;;;2.05;0.40;;;7.80;99.90;;;;;;5056959;28;20025;-74
2021/12/01 07:56:12;;;;;;;1.38;0.63;;;7.80;99.90;;;;;;5064803;28;20480;-74
2021/12/01 07:58:38;;;;;;;0.55;0.50;;;8.00;99.90;;;;;;5054019;28;20118;-73
2021/12/01 08:01:04;;;;;;;1.00;0.50;;;8.10;99.90;;;;;;5053666;28;20025;-74
2021/12/01 08:03:29;;;;;;;1.50;0.50;;;8.10;99.90;;;;;;5052908;28;20026;-74
2021/12/01 08:05:55;;;;;;;0.40;0.40;;;8.10;99.90;;;;;;5053033;28;20167;-75
2021/12/01 08:08:20;;;;;;;0.90;0.50;;;8.20;99.90;;;;;;5035889;28;20460;-73
2021/12/01 08:10:46;;;;;;;2.45;0.57;;;8.30;99.90;;;;;;5067243;28;20017;-73
2021/12/01 08:13:12;;;;;;;2.10;0.90;;;8.30;99.90;;;;;;5065063;28;20400;-74
2021/12/01 08:15:37;;;;;;;1.85;1.08;;;8.40;99.90;;;;;;5052678;28;20024;-74
2021/12/01 08:18:03;;;;;;;0.70;0.50;;;8.30;99.90;;;;;;5052798;28;20021;-75
2021/12/01 08:20:29;;;;;;;0.82;0.50;;;8.20;99.90;;;;;;5055153;28;20346;-73
2021/12/01 08:22:55;;;;;;;3.70;0.50;;;8.40;99.90;;;;;;5049879;28;20017;-73
2021/12/01 08:25:22;;;;;;;1.13;0.40;;;8.20;99.90;;;;;;5069913;28;20072;-73
2021/12/01 08:27:48;;;;;;;1.38;0.80;;;8.20;99.90;;;;;;5069409;28;20032;-74
2021/12/01 08:30:15;;;;;;;0.60;0.50;;;8.20;99.90;;;;;;5050624;28;20032;-73
2021/12/01 08:32:45;;;;;;;1.75;0.40;;;8.50;99.90;;;;;;5052891;28;20037;-73
2021/12/01 08:35:14;;;;;;;1.02;0.30;;;8.40;99.90;;;;;;5052600;28;20025;-73
2021/12/01 08:37:40;;;;;;;1.58;0.38;;;8.50;99.90;;;;;;5054167;28;20040;-73
2021/12/01 08:40:06;;;;;;;0.63;0.30;;;8.50;99.90;;;;;;5057226;28;20029;-75
2021/12/01 08:42:33;;;;;;;0.52;0.45;;;8.50;99.90;;;;;;5053248;28;20030;-73
2021/12/01 08:45:00;;;;;;;0.45;0.40;;;8.60;99.90;;;;;;5036433;28;20040;-72
2021/12/01 08:47:25;;;;;;;1.30;0.47;;;8.60;99.90;;;;;;5058942;28;20032;-73
2021/12/01 08:49:52;;;;;;;0.40;0.40;;;8.80;99.90;;;;;;5061481;28;20093;-72
2021/12/01 08:52:18;;;;;;;0.35;0.35;;;8.80;99.90;;;;;;5045392;28;20022;-73
2021/12/01 08:54:43;;;;;;;0.28;0.20;;;8.90;99.90;;;;;;5064744;28;20021;-74
2021/12/01 08:57:10;;;;;;;0.43;0.35;;;9.00;99.90;;;;;;5062254;28;20480;-74
2021/12/01 08:59:36;;;;;;;0.20;0.20;;;9.10;99.90;;;;;;5043141;28;20438;-74
2021/12/01 09:02:03;;;;;;;0.32;0.20;;;9.20;99.90;;;;;;5041700;28;20029;-74
2021/12/01 09:04:29;;;;;;;0.47;0.35;;;9.20;99.90;;;;;;5058567;28;20029;-73
2021/12/01 09:06:55;;;;;;;0.98;0.40;;;9.30;99.90;;;;;;5057663;28;20052;-73
2021/12/01 09:09:21;;;;;;;0.60;0.32;;;9.50;99.90;;;;;;5058023;28;20028;-73
2021/12/01 09:11:49;;;;;;;0.20;0.20;;;9.50;99.90;;;;;;5057700;28;20029;-74
2021/12/01 09:14:15;;;;;;;0.93;0.43;;;9.50;99.90;;;;;;5058293;28;20029;-73
2021/12/01 09:16:44;;;;;;;2.10;0.32;;;9.60;99.90;;;;;;5056937;28;20017;-73
2021/12/01 09:19:10;;;;;;;1.15;0.30;;;9.70;99.90;;;;;;5058440;28;20113;-73
2021/12/01 09:21:36;;;;;;;0.47;0.30;;;9.80;99.90;;;;;;5058092;28;20056;-73
2021/12/01 09:24:03;;;;;;;1.42;0.30;;;9.70;99.90;;;;;;5057065;28;20024;-73
2021/12/01 09:26:29;;;;;;;2.42;0.60;;;9.60;99.90;;;;;;5056759;28;20025;-75
2021/12/01 09:28:55;;;;;;;0.30;0.30;;;9.80;99.90;;;;;;5056063;28;20369;-74
2021/12/01 09:31:21;;;;;;;0.30;0.30;;;9.80;99.90;;;;;;5056805;28;20021;-74
2021/12/01 09:33:46;;;;;;;0.50;0.40;;;9.90;99.90;;;;;;5056615;28;20402;-74
2021/12/01 09:36:13;;;;;;;0.30;0.30;;;9.80;99.90;;;;;;5055999;28;20033;-75
2021/12/01 09:38:39;;;;;;;1.35;0.50;;;9.80;99.90;;;;;;5055700;28;20032;-74
2021/12/01 09:41:05;;;;;;;1.35;0.40;;;9.90;99.90;;;;;;5038185;28;20036;-73
2021/12/01 09:43:31;;;;;;;3.45;0.30;;;9.80;99.90;;;;;;5056362;28;20025;-74
2021/12/01 09:46:00;;;;;;;0.20;0.20;;;9.70;99.90;;;;;;5055639;28;20028;-74
2021/12/01 09:48:27;;;;;;;0.30;0.30;;;9.80;99.90;;;;;;5055281;28;20040;-73
2021/12/01 09:50:53;;;;;;;0.30;0.30;;;9.80;99.90;;;;;;5055342;28;20402;-74
2021/12/01 09:53:19;;;;;;;0.82;0.30;;;9.90;99.90;;;;;;5055189;28;20027;-73
2021/12/01 09:55:45;;;;;;;0.17;0.17;;;9.80;99.90;;;;;;5055558;28;20546;-74
2021/12/01 09:58:17;;;;;;;1.30;0.30;;;9.80;99.90;;;;;;5055178;28;20028;-73
2021/12/01 10:00:48;;;;;;;0.43;0.43;;;9.80;99.90;;;;;;5054711;28;20013;-73
2021/12/01 10:03:14;;;;;;;2.03;0.47;;;9.80;99.90;;;;;;5064110;28;20495;-73
2021/12/01 10:05:53;;;;;;;0.30;0.30;;;9.90;99.90;;;;;;5065724;28;20029;-73
2021/12/01 10:08:24;;;;;;;0.75;0.30;;;9.90;99.90;;;;;;5057446;28;20025;-74
2021/12/01 10:10:51;;;;;;;;;;;10.00;99.90;;;;;;5037294;28;20021;-74
2021/12/01 10:13:25;;;;;;;0.60;0.47;;;9.90;99.90;;;;;;5054581;28;19990;-74
2021/12/01 10:15:53;;;;;;;0.70;0.30;;;10.00;99.90;;;;;;5055092;28;20090;-74
2021/12/01 10:18:18;;;;;;;0.60;0.60;;;10.00;99.90;;;;;;5054285;28;20067;-73
2021/12/01 10:20:56;;;;;;;0.40;0.40;;;10.00;99.90;;;;;;5054482;28;20045;-74
2021/12/01 10:23:24;;;;;;;1.15;0.30;;;10.20;99.90;;;;;;5037285;28;20108;-74
2021/12/01 10:25:50;;;;;;;1.67;0.50;;;10.20;99.90;;;;;;5077894;22;20135;-75
2021/12/01 10:28:40;;;;;;;0.85;0.43;;;10.20;99.90;;;;;;5055889;28;20110;-75
2021/12/01 10:31:06;;;;;;;0.30;0.30;;;10.20;99.90;;;;;;5054561;28;20514;-74
2021/12/01 10:33:32;;;;;;;0.73;0.40;;;10.30;99.90;;;;;;5055590;28;20033;-74
2021/12/01 10:36:00;;;;;;;1.58;0.35;;;10.30;99.90;;;;;;5057408;28;20033;-75
2021/12/01 10:38:30;;;;;;;0.77;0.25;;;10.50;99.90;;;;;;5057282;28;20091;-73
2021/12/01 10:41:12;;;;;;;0.43;0.30;;;10.60;99.90;;;;;;5038989;28;20578;-74
2021/12/01 10:43:46;;;;;;;0.55;0.35;;;10.60;99.90;;;;;;5036466;28;20100;-75
2021/12/01 10:46:17;;;;;;;0.90;0.40;;;10.60;99.90;;;;;;5054291;28;20021;-75
2021/12/01 10:48:58;;;;;;;0.65;0.30;;;10.70;99.90;;;;;;5054646;28;20108;-75
2021/12/01 10:51:38;;;;;;;0.40;0.30;;;10.70;99.90;;;;;;5055156;28;20029;-75
2021/12/01 10:54:12;;;;;;;1.38;0.40;;;10.80;99.90;;;;;;5056061;28;20488;-74
2021/12/01 10:56:38;;;;;;;0.60;0.40;;;10.80;99.90;;;;;;5055315;28;20029;-74
2021/12/01 10:59:12;;;;;;;0.30;0.30;;;10.90;99.90;;;;;;5036859;28;20168;-74
2021/12/01 11:01:37;;;;;;;0.35;0.30;;;10.90;99.90;;;;;;5055744;28;20500;-74
2021/12/01 11:04:03;;;;;;;0.93;0.40;;;10.80;99.90;;;;;;5054490;28;20028;-75
2021/12/01 11:06:34;;;;;;;0.57;0.47;;;10.90;99.90;;;;;;5053886;28;20032;-76
2021/12/01 11:09:02;;;;;;;0.30;0.30;;;10.90;99.90;;;;;;5053913;28;20033;-76
2021/12/01 11:11:41;;;;;;;1.85;0.47;;;10.90;99.90;;;;;;5053871;28;20020;-75
2021/12/01 11:14:16;;;;;;;0.20;0.20;;;10.90;99.90;;;;;;5053433;28;20499;-76
2021/12/01 11:16:43;;;;;;;2.05;0.30;;;10.80;99.90;;;;;;5053756;28;20105;-75
2021/12/01 11:19:10;;;;;;;0.68;0.30;;;10.80;99.90;;;;;;5053537;28;20021;-76
2021/12/01 11:21:37;;;;;;;0.35;0.28;;;10.70;99.90;;;;;;5036098;28;20021;-74
2021/12/01 11:24:12;;;;;;;0.85;0.30;;;10.60;99.90;;;;;;5054042;28;20378;-74
2021/12/01 11:26:40;;;;;;;0.43;0.30;;;10.50;99.90;;;;;;5042209;28;20106;-75
2021/12/01 11:29:12;;;;;;;0.25;0.25;;;10.60;99.90;;;;;;5059562;28;20114;-76
2021/12/01 11:31:47;;;;;;;0.30;0.22;;;10.60;99.90;;;;;;5047396;28;20080;-75
2021/12/01 11:34:16;;;;;;;0.30;0.30;;;10.60;99.90;;;;;;5076997;28;20017;-75
2021/12/01 11:36:50;;;;;;;0.52;0.30;;;10.70;99.90;;;;;;5076633;28;20080;-75
2021/12/01 11:39:19;;;;;;;0.70;0.40;;;10.70;99.90;;;;;;5055802;28;20154;-74
2021/12/01 11:41:47;;;;;;;0.22;0.22;;;10.70;99.90;;;;;;5036864;28;20024;-76
2021/12/01 11:44:14;;;;;;;0.30;0.30;;;10.80;99.90;;;;;;5037243;28;20021;-75
2021/12/01 11:46:41;;;;;;;0.55;0.40;;;11.00;99.90;;;;;;5037331;28;20476;-76
2021/12/01 11:49:09;;;;;;;0.20;0.20;;;11.20;99.90;;;;;;5036819;28;20025;-75
2021/12/01 11:51:37;;;;;;;0.93;0.40;;;11.30;99.90;;;;;;5053360;28;20021;-76
2021/12/01 11:54:19;;;;;;;0.30;0.30;;;11.50;99.90;;;;;;5038400;28;20112;-74
2021/12/01 11:57:08;;;;;;;0.88;0.40;;;11.50;99.90;;;;;;5055076;28;20033;-75
2021/12/01 11:59:43;;;;;;;0.60;0.40;;;11.60;99.90;;;;;;5047090;28;20029;-75
2021/12/01 12:02:17;;;;;;;1.70;0.30;;;11.50;99.90;;;;;;5036728;28;20069;-75
2021/12/01 12:04:44;;;;;;;0.55;0.30;;;11.80;99.90;;;;;;5037505;28;20027;-75
2021/12/01 12:07:25;;;;;;;1.27;1.05;;;11.80;99.90;;;;;;5054204;28;20036;-75
2021/12/01 12:10:19;;;;;;;0.40;0.40;;;11.90;99.90;;;;;;5063438;28;20025;-75
2021/12/01 12:12:55;;;;;;;0.52;0.32;;;12.10;99.90;;;;;;5070351;28;20021;-74
2021/12/01 12:15:35;;;;;;;0.73;0.40;;;12.10;99.90;;;;;;5073763;28;20029;-75
2021/12/01 12:18:01;;;;;;;1.27;0.50;;;12.40;99.90;;;;;;5050207;28;20524;-75
2021/12/01 12:20:34;;;;;;;0.50;0.50;;;12.50;99.90;;;;;;5058007;28;20051;-75
2021/12/01 12:23:07;;;;;;;2.40;0.50;;;12.80;99.90;;;;;;5060691;28;20032;-75
2021/12/01 12:25:52;;;;;;;1.15;0.30;;;12.40;99.90;;;;;;5059832;28;20615;-76
2021/12/01 12:28:22;;;;;;;0.73;0.40;;;12.20;99.90;;;;;;5040845;28;20051;-76
2021/12/01 12:30:48;;;;;;;2.03;0.50;;;12.10;99.90;;;;;;5041635;28;20033;-75
2021/12/01 12:33:28;;;;;;;0.60;0.60;;;12.10;99.90;;;;;;5056832;28;20106;-76
2021/12/01 12:36:00;;;;;;;0.68;0.40;;;12.10;99.90;;;;;;5057033;28;20021;-77
2021/12/01 12:38:26;;;;;;;1.17;0.50;;;12.30;99.90;;;;;;5057306;28;20037;-74
2021/12/01 12:41:13;;;;;;;1.17;1.00;;;12.30;99.90;;;;;;5039443;28;20029;-75
2021/12/01 12:43:41;;;;;;;1.00;0.73;;;12.00;99.90;;;;;;5057251;28;20017;-74
2021/12/01 12:46:16;;;;;;;2.05;0.60;;;11.80;99.90;;;;;;5039400;28;20036;-75
2021/12/01 12:48:50;;;;;;;1.15;0.77;;;11.80;99.90;;;;;;5057134;28;20021;-75
2021/12/01 12:51:30;;;;;;;1.42;0.68;;;11.70;99.90;;;;;;5059192;28;20029;-75
2021/12/01 12:54:06;;;;;;;1.57;0.80;;;11.50;99.90;;;;;;5059101;28;20071;-74
2021/12/01 12:56:40;;;;;;;0.93;0.82;;;11.30;99.90;;;;;;5040413;28;20481;-75
2021/12/01 12:59:16;;;;;;;0.68;0.60;;;11.20;99.90;;;;;;5056612;28;20032;-75
2021/12/01 13:01:42;;;;;;;1.35;0.60;;;11.10;99.90;;;;;;5056766;28;20021;-75
2021/12/01 13:04:07;;;;;;;1.02;0.60;;;11.00;99.90;;;;;;5058926;28;20025;-75